Time;durP1;ratioP1;P1;durP2;ratioP2;P2;SDS_P1;SDS_P2;PMS_P1;PMS_P2;Temp;Humidity;BMP_temperature;BMP_pressure;BME280_temperature;BME280_humidity;BME280_pressure;Samples;Min_cycle;Max_cycle;Signal;HPM_P1;HPM_P2
2023/05/19 00:03:57;;;;;;;22.48;14.65;;;;;;;11.68;100.00;97850.38;10279073;28;20665;-51
2023/05/19 00:09:00;;;;;;;25.38;15.57;;;;;;;11.72;100.00;97857.28;10278327;28;20443;-52
2023/05/19 00:13:59;;;;;;;25.15;16.63;;;;;;;11.68;100.00;97859.03;10279278;28;20489;-52
2023/05/19 00:18:59;;;;;;;30.33;19.40;;;;;;;11.65;100.00;97864.25;10278667;28;20549;-52
2023/05/19 00:23:58;;;;;;;32.05;20.67;;;;;;;11.64;100.00;97852.13;10278629;28;20145;-52
2023/05/19 00:28:57;;;;;;;;;;;;;;;11.69;100.00;97865.13;10279128;28;20041;-51
2023/05/19 00:33:56;;;;;;;28.75;18.08;;;;;;;11.74;100.00;97868.56;10278617;28;19918;-50
2023/05/19 00:38:55;;;;;;;26.42;17.10;;;;;;;11.74;100.00;97857.31;10287115;28;20080;-52
2023/05/19 00:43:54;;;;;;;;;;;;;;;11.70;100.00;97860.78;10285093;28;20137;-52
2023/05/19 00:48:53;;;;;;;25.80;16.00;;;;;;;11.66;100.00;97859.91;10285133;28;20026;-51
2023/05/19 00:53:52;;;;;;;29.20;16.45;;;;;;;11.63;100.00;97865.13;10285825;28;20034;-52
2023/05/19 00:58:52;;;;;;;29.48;16.85;;;;;;;11.59;100.00;97861.66;10285993;28;20128;-50
2023/05/19 01:03:51;;;;;;;30.77;17.83;;;;;;;11.56;100.00;97859.06;10283811;28;20117;-51
2023/05/19 01:08:50;;;;;;;29.20;18.63;;;;;;;11.56;100.00;97848.69;10285238;28;20117;-52
2023/05/19 01:13:50;;;;;;;;;;;;;;;11.04;100.00;97771.78;10286458;28;20121;-51
2023/05/19 01:19:00;;;;;;;33.08;18.42;;;;;;;11.51;100.00;97865.16;10285634;28;20013;-52
2023/05/19 01:24:08;;;;;;;36.15;20.13;;;;;;;11.49;100.00;97865.16;10284921;28;20195;-52
2023/05/19 01:29:14;;;;;;;37.22;20.05;;;;;;;11.51;100.00;97859.97;10284560;28;20124;-51
2023/05/19 01:34:15;;;;;;;37.00;20.48;;;;;;;11.44;100.00;97852.19;10284211;28;20116;-51
2023/05/19 01:39:15;;;;;;;25.92;15.55;;;;;;;11.00;100.00;97883.44;10284155;28;20108;-51
2023/05/19 01:44:14;;;;;;;24.77;14.88;;;;;;;10.81;100.00;97878.22;10285034;28;20065;-52
2023/05/19 01:49:13;;;;;;;25.83;14.23;;;;;;;10.75;100.00;97870.44;10283531;28;20073;-52
2023/05/19 01:54:12;;;;;;;24.20;13.80;;;;;;;10.53;100.00;97848.78;10284116;28;20026;-51
2023/05/19 01:59:45;;;;;;;22.25;13.80;;;;;;;10.54;100.00;97873.00;10284605;28;20041;-52
2023/05/19 02:04:55;;;;;;;24.80;13.50;;;;;;;10.50;100.00;97887.72;10283149;28;20126;-51
2023/05/19 02:10:05;;;;;;;26.75;15.30;;;;;;;10.17;100.00;97832.34;10283611;28;20122;-52
2023/05/19 02:15:10;;;;;;;22.73;14.60;;;;;;;10.53;100.00;97892.91;10283051;28;20220;-51
2023/05/19 02:20:10;;;;;;;25.45;15.48;;;;;;;10.67;100.00;97889.47;10282630;28;20535;-51
2023/05/19 02:25:10;;;;;;;21.90;14.50;;;;;;;10.79;100.00;97898.13;10283343;28;20480;-51
2023/05/19 02:30:09;;;;;;;22.98;13.70;;;;;;;10.85;100.00;97905.06;10282185;28;20109;-51
2023/05/19 02:35:08;;;;;;;22.25;14.20;;;;;;;10.95;100.00;97903.34;10282510;28;20124;-51
2023/05/19 02:40:07;;;;;;;;;;;;;;;11.02;100.00;97907.69;10282963;28;20073;-50
2023/05/19 02:45:07;;;;;;;22.03;14.03;;;;;;;11.03;100.00;97904.19;10281856;28;19909;-52
2023/05/19 02:50:06;;;;;;;22.15;12.60;;;;;;;11.12;100.00;97913.72;10281514;28;20140;-50
2023/05/19 02:55:06;;;;;;;22.23;13.70;;;;;;;11.22;100.00;97918.03;10281467;28;20117;-52
2023/05/19 03:00:06;;;;;;;24.30;13.82;;;;;;;11.24;100.00;97908.50;10279863;28;20506;-52
2023/05/19 03:05:07;;;;;;;18.08;12.50;;;;;;;11.21;100.00;97919.78;10281270;28;20137;-51
2023/05/19 03:10:07;;;;;;;18.67;12.13;;;;;;;11.25;100.00;97933.63;10282014;28;20069;-52
2023/05/19 03:15:06;;;;;;;18.10;11.82;;;;;;;11.36;100.00;97929.31;10280909;28;20073;-51
2023/05/19 03:20:07;;;;;;;16.58;10.07;;;;;;;11.45;100.00;97931.00;10280406;28;20118;-52
2023/05/19 03:25:06;;;;;;;14.50;9.95;;;;;;;11.42;100.00;97911.09;10280907;28;20061;-51
2023/05/19 03:30:05;;;;;;;;;;;;;;;11.67;100.00;97934.44;10280472;28;20069;-52
2023/05/19 03:35:04;;;;;;;17.03;9.20;;;;;;;11.70;100.00;97939.63;10280492;28;20469;-52
2023/05/19 03:40:04;;;;;;;14.02;10.10;;;;;;;11.74;100.00;97928.34;10280276;28;20819;-52
2023/05/19 03:45:04;;;;;;;19.95;12.80;;;;;;;11.68;99.64;97943.97;10279649;28;20065;-52
2023/05/19 03:50:03;;;;;;;19.88;12.57;;;;;;;11.60;99.79;97941.38;10279704;28;20138;-51
2023/05/19 03:55:03;;;;;;;22.92;15.00;;;;;;;11.62;99.68;97954.38;10279649;28;20117;-50
2023/05/19 04:00:04;;;;;;;28.65;13.55;;;;;;;11.54;100.00;97956.97;10279191;28;20117;-52
2023/05/19 04:05:03;;;;;;;30.65;15.43;;;;;;;11.33;100.00;97964.81;10279465;28;20068;-51
2023/05/19 04:10:06;;;;;;;26.65;16.05;;;;;;;11.20;100.00;97959.63;10279707;28;20069;-52
2023/05/19 04:15:06;;;;;;;28.33;16.38;;;;;;;11.46;100.00;97964.78;10280170;28;20473;-52
2023/05/19 04:20:05;;;;;;;29.55;16.73;;;;;;;11.72;100.00;97963.88;10279146;28;20487;-52
2023/05/19 04:25:06;;;;;;;24.35;15.75;;;;;;;11.84;100.00;97970.78;10279220;28;20122;-53
2023/05/19 04:30:05;;;;;;;24.95;16.73;;;;;;;11.98;100.00;97970.75;10277091;28;20535;-52
2023/05/19 04:35:04;;;;;;;23.70;15.55;;;;;;;12.09;100.00;97979.38;10278994;28;20073;-52
2023/05/19 04:40:05;;;;;;;;;;;;;;;12.18;99.27;97975.88;10278897;28;20073;-52
2023/05/19 04:45:04;;;;;;;27.17;17.90;;;;;;;12.25;97.74;97968.06;10274907;28;20063;-52
2023/05/19 04:50:04;;;;;;;24.02;15.13;;;;;;;12.25;98.69;97957.66;10275706;28;20081;-52
2023/05/19 04:55:03;;;;;;;23.13;15.65;;;;;;;12.51;98.99;97967.09;10274039;28;20119;-52
2023/05/19 05:00:07;;;;;;;22.60;15.25;;;;;;;12.72;97.50;97979.97;10276998;28;20065;-52
2023/05/19 05:05:07;;;;;;;20.35;15.05;;;;;;;12.82;96.34;97979.94;10278136;28;20460;-52
2023/05/19 05:10:06;;;;;;;21.60;15.07;;;;;;;12.78;95.43;97978.22;10268524;28;20074;-52
2023/05/19 05:15:06;;;;;;;18.67;14.15;;;;;;;12.63;94.57;97987.84;10237669;28;20062;-52
2023/05/19 05:20:06;;;;;;;23.25;15.48;;;;;;;12.62;93.83;97970.47;10235002;28;20149;-52
2023/05/19 05:25:06;;;;;;;26.42;17.80;;;;;;;12.77;94.26;97985.16;10244451;28;20057;-52
2023/05/19 05:30:06;;;;;;;30.02;19.05;;;;;;;12.77;94.44;97963.47;10244694;28;20057;-52
2023/05/19 05:35:06;;;;;;;24.23;17.92;;;;;;;13.19;93.93;97992.66;10243781;28;20121;-52
2023/05/19 05:40:05;;;;;;;23.15;17.73;;;;;;;13.54;91.63;97995.91;10249181;28;20076;-52
2023/05/19 05:45:05;;;;;;;25.40;19.33;;;;;;;13.65;91.54;98000.16;10246591;28;20062;-52
2023/05/19 05:50:05;;;;;;;25.42;18.48;;;;;;;13.65;89.49;97998.41;10247165;28;20145;-51
2023/05/19 05:55:05;;;;;;;28.00;20.55;;;;;;;12.83;88.14;97880.06;10245722;28;20173;-53
2023/05/19 06:00:07;;;;;;;25.50;19.10;;;;;;;13.87;89.89;98001.69;10246059;28;20479;-52
2023/05/19 06:05:06;;;;;;;27.33;20.00;;;;;;;14.10;89.43;98010.97;10242915;28;20133;-52
2023/05/19 06:10:06;;;;;;;27.25;20.52;;;;;;;14.26;88.87;98002.09;10244274;28;20122;-52
2023/05/19 06:15:06;;;;;;;26.40;17.50;;;;;;;14.44;86.77;98031.50;10245834;28;20065;-51
2023/05/19 06:20:07;;;;;;;20.52;16.13;;;;;;;14.55;86.95;98030.47;10244789;28;20061;-52
2023/05/19 06:25:07;;;;;;;25.95;17.30;;;;;;;14.58;86.41;98030.44;10247584;28;20508;-52
2023/05/19 06:30:07;;;;;;;21.17;17.27;;;;;;;14.95;86.76;98029.13;10245463;28;20078;-52
2023/05/19 06:35:06;;;;;;;22.20;16.95;;;;;;;15.35;83.50;98033.75;10243611;28;20528;-52
2023/05/19 06:40:07;;;;;;;24.52;19.20;;;;;;;15.69;83.78;98039.28;10244820;28;20065;-51
2023/05/19 06:45:06;;;;;;;23.65;17.85;;;;;;;16.00;83.49;98034.44;10244031;28;20058;-52
2023/05/19 06:50:06;;;;;;;22.92;16.90;;;;;;;15.85;79.49;98024.22;10243559;28;20074;-53
2023/05/19 06:55:05;;;;;;;17.38;14.50;;;;;;;15.75;80.69;98036.56;10244303;28;20475;-52
2023/05/19 07:00:08;;;;;;;19.50;14.85;;;;;;;15.65;81.90;98028.03;10244176;28;20471;-52
2023/05/19 07:05:08;;;;;;;30.77;15.63;;;;;;;15.60;83.15;98035.09;10238273;28;20118;-52
2023/05/19 07:10:07;;;;;;;22.80;14.88;;;;;;;15.79;82.66;98029.59;10244024;28;20065;-52
2023/05/19 07:15:06;;;;;;;17.90;14.98;;;;;;;15.97;82.67;98033.59;10243339;28;20161;-53
2023/05/19 07:20:06;;;;;;;17.05;14.13;;;;;;;16.18;81.32;98027.09;10243615;28;20535;-52
2023/05/19 07:25:06;;;;;;;15.82;12.73;;;;;;;16.04;82.24;98023.00;10243903;28;20053;-52
2023/05/19 07:30:06;;;;;;;18.08;12.82;;;;;;;16.02;81.26;98019.56;10244345;28;20512;-52
2023/05/19 07:35:06;;;;;;;14.95;10.90;;;;;;;16.11;83.07;98021.13;10243807;28;20565;-52
2023/05/19 07:40:06;;;;;;;15.48;10.43;;;;;;;16.39;82.22;98020.59;10243525;28;20072;-52
2023/05/19 07:45:06;;;;;;;14.10;9.13;;;;;;;16.66;79.46;98013.94;10239156;28;20129;-52
2023/05/19 07:50:05;;;;;;;9.85;7.70;;;;;;;16.71;76.37;98007.69;10240652;28;20070;-52
2023/05/19 07:55:05;;;;;;;12.15;7.90;;;;;;;16.71;75.85;98020.78;10242227;28;20109;-53
2023/05/19 08:00:08;;;;;;;19.23;15.18;;;;;;;16.73;77.12;98012.91;10243149;28;20128;-53
2023/05/19 08:05:08;;;;;;;17.52;12.95;;;;;;;16.84;75.35;98003.06;10242446;28;20061;-52
2023/05/19 08:10:07;;;;;;;16.20;11.88;;;;;;;16.82;75.40;98010.09;10242615;28;20065;-53
2023/05/19 08:15:07;;;;;;;10.90;7.15;;;;;;;17.18;75.40;98020.66;10239845;28;20065;-53
2023/05/19 08:20:08;;;;;;;10.55;8.00;;;;;;;17.33;73.74;98017.69;10242527;28;20073;-53
2023/05/19 08:25:08;;;;;;;12.88;8.07;;;;;;;17.22;70.00;98019.69;10239755;28;20066;-53
2023/05/19 08:30:08;;;;;;;14.23;9.48;;;;;;;17.58;73.07;98019.69;10241313;28;20154;-52
2023/05/19 08:35:07;;;;;;;11.32;8.63;;;;;;;17.91;66.52;98014.50;10239360;28;20165;-53
2023/05/19 08:40:10;;;;;;;14.75;11.13;;;;;;;17.86;63.33;98025.13;10240283;28;20121;-53
2023/05/19 08:45:09;;;;;;;13.55;9.05;;;;;;;17.73;65.33;98024.56;10239758;28;20070;-53
2023/05/19 08:50:10;;;;;;;10.60;8.10;;;;;;;17.61;64.82;98016.13;10238938;28;20138;-52
2023/05/19 08:55:26;;;;;;;13.13;9.05;;;;;;;18.08;68.05;98021.94;10241934;28;20073;-53
2023/05/19 09:00:25;;;;;;;10.70;8.60;;;;;;;17.83;63.90;98014.72;10246729;28;20078;-53
2023/05/19 09:05:24;;;;;;;14.38;8.98;;;;;;;18.14;67.51;98006.88;10245059;28;20058;-53
2023/05/19 09:10:23;;;;;;;11.20;8.85;;;;;;;18.32;64.69;98002.88;10247627;28;20090;-53
2023/05/19 09:15:26;;;;;;;13.95;9.38;;;;;;;18.47;62.52;98000.72;10247894;28;20030;-53
2023/05/19 09:20:29;;;;;;;11.27;9.07;;;;;;;18.65;62.06;98002.81;10247644;28;20074;-53
2023/05/19 09:25:28;;;;;;;12.23;9.20;;;;;;;18.81;61.00;98008.50;10247235;28;20786;-53
2023/05/19 09:30:27;;;;;;;13.93;9.43;;;;;;;19.00;62.19;98004.41;10246628;28;20030;-54
2023/05/19 09:35:26;;;;;;;13.70;9.15;;;;;;;19.18;59.35;98002.09;10248032;28;20026;-53
2023/05/19 09:40:27;;;;;;;14.48;8.93;;;;;;;19.15;60.47;97991.69;10246718;28;20046;-54
2023/05/19 09:45:27;;;;;;;12.32;9.25;;;;;;;19.25;60.28;97987.84;10246048;28;20065;-54
2023/05/19 09:50:28;;;;;;;10.30;8.77;;;;;;;19.23;61.40;97989.69;10247022;28;20073;-54
2023/05/19 09:55:28;;;;;;;13.30;9.38;;;;;;;19.37;60.69;97983.94;10247482;28;20074;-54
2023/05/19 10:00:29;;;;;;;13.88;8.73;;;;;;;19.11;60.04;97940.06;10245952;28;20077;-54
2023/05/19 10:05:28;;;;;;;14.30;9.55;;;;;;;19.59;62.00;97978.88;10245000;28;20061;-54
2023/05/19 10:10:30;;;;;;;12.90;9.70;;;;;;;19.51;59.10;97950.16;10244155;28;20078;-54
2023/05/19 10:15:29;;;;;;;12.63;9.63;;;;;;;19.96;60.09;97957.41;10242395;28;20193;-54
2023/05/19 10:20:29;;;;;;;14.75;9.35;;;;;;;20.10;58.68;97956.03;10244893;28;20066;-54
2023/05/19 10:25:33;;;;;;;11.82;9.30;;;;;;;20.33;56.63;97940.25;10243428;28;20121;-54
2023/05/19 10:30:38;;;;;;;10.80;8.75;;;;;;;20.58;55.57;97949.88;10243453;28;20864;-54
2023/05/19 10:35:43;;;;;;;13.05;9.45;;;;;;;20.68;54.74;97944.22;10236357;28;20117;-54
2023/05/19 10:40:52;;;;;;;15.63;10.25;;;;;;;20.96;56.90;97932.56;10238034;28;20148;-54
2023/05/19 10:45:52;;;;;;;;;;;;;;;21.26;57.94;97926.97;10238132;28;20142;-55
2023/05/19 10:50:55;;;;;;;14.00;9.60;;;;;;;21.31;55.04;97891.56;10241760;28;20048;-54
2023/05/19 10:55:55;;;;;;;14.30;9.82;;;;;;;22.01;52.34;97922.91;10240966;28;20120;-54
2023/05/19 11:01:00;;;;;;;12.88;9.32;;;;;;;22.22;51.34;97919.31;10242857;28;20121;-54
2023/05/19 11:06:27;;;;;;;14.52;10.10;;;;;;;22.68;51.06;97917.19;10242249;28;20117;-54
2023/05/19 11:11:42;;;;;;;12.93;9.50;;;;;;;22.67;49.33;97880.22;10243982;28;20137;-54
2023/05/19 11:16:44;;;;;;;14.73;10.07;;;;;;;22.41;49.03;97910.53;10243105;28;20129;-54
2023/05/19 11:21:49;;;;;;;15.23;10.25;;;;;;;22.18;49.24;97894.81;10241156;28;20158;-54
2023/05/19 11:26:48;;;;;;;13.43;9.98;;;;;;;22.24;48.71;97893.66;10240969;28;20073;-54
2023/05/19 11:31:47;;;;;;;15.32;10.93;;;;;;;22.74;50.39;97879.00;10238818;28;20034;-54
2023/05/19 11:36:47;;;;;;;13.45;10.68;;;;;;;23.49;47.29;97890.34;10238662;28;20149;-54
2023/05/19 11:41:46;;;;;;;15.20;10.55;;;;;;;23.40;44.25;97886.34;10237805;28;20069;-54
2023/05/19 11:46:45;;;;;;;16.70;12.82;;;;;;;23.64;45.41;97881.63;10237205;28;20116;-54
2023/05/19 11:51:44;;;;;;;13.38;10.27;;;;;;;23.77;43.38;97877.41;10239408;28;20077;-54
2023/05/19 11:56:43;;;;;;;12.10;9.68;;;;;;;23.53;42.89;97882.16;10240271;28;20113;-54
2023/05/19 12:01:42;;;;;;;22.05;16.42;;;;;;;23.08;44.37;97866.78;10240259;28;20042;-54
2023/05/19 12:06:41;;;;;;;23.80;18.48;;;;;;;23.07;45.69;97876.53;10237980;28;20062;-54
2023/05/19 12:11:40;;;;;;;13.68;10.43;;;;;;;23.07;44.05;97871.25;10243012;28;20073;-54
2023/05/19 12:16:40;;;;;;;15.85;10.52;;;;;;;23.07;44.07;97871.25;10242110;28;20046;-54
2023/05/19 12:21:40;;;;;;;16.55;10.30;;;;;;;23.13;43.45;97798.59;10242586;28;20517;-54
2023/05/19 12:26:39;;;;;;;16.45;9.98;;;;;;;23.67;43.53;97856.75;10242090;28;20106;-54
2023/05/19 12:31:38;;;;;;;14.15;10.20;;;;;;;23.94;41.84;97841.19;10245042;28;20065;-54
2023/05/19 12:36:37;;;;;;;13.80;10.18;;;;;;;24.11;40.90;97819.06;10246380;28;20137;-54
2023/05/19 12:41:36;;;;;;;13.23;10.70;;;;;;;23.61;40.44;97818.19;10244502;28;20559;-54
2023/05/19 12:46:39;;;;;;;16.42;11.05;;;;;;;23.98;41.72;97838.28;10245482;28;20121;-54
2023/05/19 12:51:39;;;;;;;13.63;10.75;;;;;;;24.25;40.75;97824.47;10249080;28;20145;-54
2023/05/19 12:56:48;;;;;;;16.42;10.45;;;;;;;24.48;42.02;97823.22;10249382;28;20077;-54
2023/05/19 13:01:56;;;;;;;16.38;10.32;;;;;;;24.84;44.27;97817.56;10247950;28;20224;-54
2023/05/19 13:06:55;;;;;;;13.05;9.95;;;;;;;24.80;41.52;97818.72;10248862;28;20445;-54
2023/05/19 13:11:54;;;;;;;13.57;10.00;;;;;;;24.79;43.21;97810.84;10248283;28;20488;-54
2023/05/19 13:16:53;;;;;;;12.10;9.85;;;;;;;24.13;40.81;97802.13;10249810;28;20082;-54
2023/05/19 13:21:53;;;;;;;11.80;10.00;;;;;;;23.87;41.36;97800.91;10246765;28;20054;-53
2023/05/19 13:26:52;;;;;;;12.57;9.73;;;;;;;23.72;41.10;97802.56;10248629;28;20069;-54
2023/05/19 13:31:51;;;;;;;14.60;9.88;;;;;;;23.48;41.68;97798.59;10248439;28;20129;-54
2023/05/19 13:36:49;;;;;;;12.95;10.15;;;;;;;23.30;43.19;97803.00;10247480;28;20113;-54
2023/05/19 13:41:49;;;;;;;16.65;9.77;;;;;;;23.36;42.58;97813.28;10246368;28;20129;-55
2023/05/19 13:46:48;;;;;;;13.23;9.18;;;;;;;23.40;43.43;97820.16;10247425;28;20065;-54
2023/05/19 13:51:47;;;;;;;19.67;9.07;;;;;;;23.46;43.32;97817.16;10246880;28;20085;-54
2023/05/19 13:56:47;;;;;;;11.90;8.50;;;;;;;23.56;44.87;97810.50;10247310;28;20042;-54
2023/05/19 14:01:46;;;;;;;13.70;8.73;;;;;;;23.37;46.49;97813.22;10247696;28;20826;-54
2023/05/19 14:06:45;;;;;;;14.93;8.68;;;;;;;23.20;46.63;97806.13;10246692;28;20054;-54
2023/05/19 14:11:46;;;;;;;16.98;10.23;;;;;;;23.04;44.59;97807.00;10239683;28;20038;-54
2023/05/19 14:16:45;;;;;;;17.88;10.07;;;;;;;23.04;46.34;97814.94;10242872;28;20117;-55
2023/05/19 14:21:44;;;;;;;13.95;9.82;;;;;;;23.24;47.02;97812.13;10245667;28;20121;-55
2023/05/19 14:26:42;;;;;;;17.83;10.80;;;;;;;23.26;45.95;97804.13;10245859;28;20117;-54
2023/05/19 14:31:41;;;;;;;19.25;10.98;;;;;;;23.61;42.09;97819.06;10244130;28;20041;-54
2023/05/19 14:36:40;;;;;;;17.45;10.48;;;;;;;23.78;44.11;97825.25;10243617;28;20026;-54
2023/05/19 14:41:39;;;;;;;15.13;10.98;;;;;;;23.86;46.18;97836.28;10244968;28;20157;-54
2023/05/19 14:46:38;;;;;;;15.27;10.18;;;;;;;23.67;46.18;97847.00;10244830;28;20042;-55
2023/05/19 14:51:37;;;;;;;15.82;11.15;;;;;;;23.45;46.98;97847.25;10243330;28;20133;-56
2023/05/19 14:56:36;;;;;;;14.20;10.90;;;;;;;23.60;47.88;97842.97;10238160;28;20027;-55
2023/05/19 15:01:35;;;;;;;24.75;20.02;;;;;;;23.94;47.64;97839.38;10240666;28;20655;-54
2023/05/19 15:06:34;;;;;;;13.75;9.57;;;;;;;24.03;44.08;97838.91;10238405;28;20494;-55
2023/05/19 15:11:34;;;;;;;17.83;10.70;;;;;;;23.86;45.67;97841.59;10239085;28;20133;-54
2023/05/19 15:16:33;;;;;;;15.50;9.82;;;;;;;23.61;45.91;97848.19;10275700;28;20050;-54
2023/05/19 15:21:32;;;;;;;14.52;9.50;;;;;;;23.44;43.63;97850.81;10279133;28;20044;-54
2023/05/19 15:26:31;;;;;;;12.60;10.00;;;;;;;23.20;45.68;97869.66;10278561;28;20038;-54
2023/05/19 15:31:30;;;;;;;12.45;9.18;;;;;;;22.63;47.78;97868.94;10277836;28;20052;-54
2023/05/19 15:36:30;;;;;;;15.50;10.82;;;;;;;21.96;51.40;97873.75;10252482;28;20049;-54
2023/05/19 15:41:29;;;;;;;17.30;11.25;;;;;;;21.78;54.01;97885.16;10281210;28;20646;-54
2023/05/19 15:46:28;;;;;;;16.35;11.40;;;;;;;21.75;54.43;97886.13;10279833;28;20515;-54
2023/05/19 15:51:27;;;;;;;15.52;10.70;;;;;;;21.75;55.77;97877.34;10279674;28;20157;-54
2023/05/19 15:56:26;;;;;;;16.17;10.52;;;;;;;21.80;55.49;97877.16;10279171;28;20116;-54
2023/05/19 16:01:26;;;;;;;14.07;9.98;;;;;;;21.75;55.78;97872.06;10280739;28;20084;-54
2023/05/19 16:06:26;;;;;;;13.80;10.15;;;;;;;21.82;56.84;97881.44;10278357;28;20105;-54
2023/05/19 16:11:25;;;;;;;16.58;10.80;;;;;;;21.73;57.74;97881.84;10277791;28;20380;-54
2023/05/19 16:16:24;;;;;;;13.15;10.45;;;;;;;21.55;57.92;97888.81;10279507;28;20121;-54
2023/05/19 16:21:23;;;;;;;11.18;9.02;;;;;;;21.30;53.37;97895.13;10278124;28;20100;-54
2023/05/19 16:26:22;;;;;;;16.02;10.32;;;;;;;21.23;54.97;97888.38;10277787;28;20118;-54
2023/05/19 16:31:21;;;;;;;13.13;9.45;;;;;;;21.07;54.90;97880.19;10278531;28;20030;-54
2023/05/19 16:36:21;;;;;;;16.42;11.70;;;;;;;20.98;56.53;97885.00;10278300;28;20030;-54
2023/05/19 16:41:20;;;;;;;14.95;10.18;;;;;;;20.53;57.62;97899.97;10277979;28;20153;-54
2023/05/19 16:46:19;;;;;;;14.52;10.35;;;;;;;20.09;61.35;97902.47;10278629;28;20024;-54
2023/05/19 16:51:18;;;;;;;18.02;13.00;;;;;;;19.96;63.16;97907.34;10278566;28;20539;-55
2023/05/19 16:56:17;;;;;;;18.13;11.98;;;;;;;19.88;64.33;97898.84;10278047;28;20034;-54
2023/05/19 17:01:16;;;;;;;16.83;11.48;;;;;;;19.62;64.35;97879.56;10277821;28;20133;-54
2023/05/19 17:06:15;;;;;;;17.95;11.70;;;;;;;19.79;65.14;97917.59;10277461;28;20041;-53
2023/05/19 17:11:14;;;;;;;16.70;11.55;;;;;;;19.71;66.07;97923.16;10277838;28;20044;-54
2023/05/19 17:16:13;;;;;;;18.95;12.65;;;;;;;19.60;66.12;97930.56;10278659;28;20087;-54
2023/05/19 17:21:12;;;;;;;15.32;12.27;;;;;;;19.35;66.38;97936.66;10285466;28;20290;-54
2023/05/19 17:26:11;;;;;;;19.15;12.43;;;;;;;19.22;66.71;97941.44;10285218;28;20040;-54
2023/05/19 17:31:11;;;;;;;18.77;13.85;;;;;;;19.06;67.95;97945.47;10285390;28;20053;-54
2023/05/19 17:36:10;;;;;;;17.38;12.65;;;;;;;18.94;68.96;97946.72;10284325;28;20135;-54
2023/05/19 17:41:09;;;;;;;24.63;14.55;;;;;;;18.75;70.20;97951.69;10284002;28;20022;-53
2023/05/19 17:46:08;;;;;;;19.20;13.57;;;;;;;18.57;71.42;97962.75;10282934;28;20026;-53
2023/05/19 17:51:07;;;;;;;17.88;14.02;;;;;;;18.38;71.72;97965.91;10283394;28;20133;-53
2023/05/19 17:56:08;;;;;;;19.27;14.93;;;;;;;18.19;72.59;97972.59;10284166;28;20038;-54
2023/05/19 18:01:08;;;;;;;30.48;21.17;;;;;;;18.01;74.21;97984.50;10282497;28;20415;-53
2023/05/19 18:06:07;;;;;;;23.92;16.85;;;;;;;17.17;74.67;97886.94;10283213;28;20465;-53
2023/05/19 18:11:06;;;;;;;22.45;16.58;;;;;;;17.66;75.39;97991.50;10282184;28;20109;-53
2023/05/19 18:16:05;;;;;;;21.80;15.57;;;;;;;17.54;76.09;97992.69;10283159;28;20538;-53
2023/05/19 18:21:05;;;;;;;20.25;14.00;;;;;;;17.45;75.50;97994.66;10281632;28;20156;-53
2023/05/19 18:26:04;;;;;;;21.67;15.65;;;;;;;17.25;77.46;97993.38;10282837;28;20069;-53
2023/05/19 18:31:04;;;;;;;21.20;14.40;;;;;;;17.14;77.76;98005.88;10280655;28;20033;-53
2023/05/19 18:36:03;;;;;;;19.92;11.70;;;;;;;16.90;77.54;98009.94;10282126;28;20178;-53
2023/05/19 18:41:05;;;;;;;17.00;11.13;;;;;;;16.87;77.03;98021.34;10282239;28;20133;-53
2023/05/19 18:46:04;;;;;;;23.60;11.93;;;;;;;16.18;76.83;97917.13;10281305;28;20124;-53
2023/05/19 18:51:03;;;;;;;18.67;11.52;;;;;;;16.75;76.38;98029.44;10281609;28;20132;-53
2023/05/19 18:56:03;;;;;;;15.57;11.15;;;;;;;16.61;75.99;98032.34;10282014;28;20081;-53
2023/05/19 19:01:02;;;;;;;21.23;15.38;;;;;;;16.70;76.25;98065.38;10280248;28;20510;-53
2023/05/19 19:06:00;;;;;;;19.67;15.43;;;;;;;16.61;76.94;98070.81;10280696;28;20479;-52
2023/05/19 19:11:00;;;;;;;15.23;11.18;;;;;;;16.35;78.45;98074.81;10280690;28;20446;-52
2023/05/19 19:15:58;;;;;;;22.60;11.70;;;;;;;16.35;78.96;98087.91;10280136;28;20116;-53
2023/05/19 19:21:00;;;;;;;18.85;11.73;;;;;;;16.40;79.06;98107.00;10279909;28;20125;-53
2023/05/19 19:25:59;;;;;;;15.32;12.25;;;;;;;16.40;79.17;98111.38;10281080;28;20500;-53
2023/05/19 19:30:58;;;;;;;22.40;14.40;;;;;;;16.38;79.30;98110.53;10279222;28;20561;-54
2023/05/19 19:35:57;;;;;;;21.20;15.43;;;;;;;16.39;79.97;98123.59;10280312;28;20081;-53
2023/05/19 19:40:56;;;;;;;17.05;12.07;;;;;;;16.34;79.32;98112.34;10277843;28;20037;-52
2023/05/19 19:46:01;;;;;;;17.70;12.70;;;;;;;16.32;78.67;98129.84;10279760;28;20038;-52
2023/05/19 19:51:00;;;;;;;17.58;11.93;;;;;;;16.27;78.59;98126.44;10279971;28;20101;-53
2023/05/19 19:56:00;;;;;;;15.38;10.98;;;;;;;16.23;77.98;98114.28;10278782;28;20045;-53
2023/05/19 20:01:01;;;;;;;16.30;10.80;;;;;;;16.13;77.53;98118.81;10278901;28;20567;-52
2023/05/19 20:06:01;;;;;;;15.13;9.25;;;;;;;15.73;76.55;98068.88;10279124;28;20133;-53
2023/05/19 20:11:00;;;;;;;17.38;9.75;;;;;;;15.85;76.54;98118.44;10279303;28;20168;-53
2023/05/19 20:15:58;;;;;;;14.02;8.98;;;;;;;15.79;76.89;98134.25;10278681;28;20026;-53
2023/05/19 20:20:57;;;;;;;;;;;;;;;15.82;76.61;98111.50;10278936;28;20356;-53
2023/05/19 20:25:56;;;;;;;15.03;9.53;;;;;;;15.86;76.80;98100.09;10279730;28;19925;-53
2023/05/19 20:30:55;;;;;;;14.65;9.43;;;;;;;15.87;76.45;98098.34;10279103;28;20077;-54
2023/05/19 20:35:54;;;;;;;13.82;8.98;;;;;;;15.87;76.02;98117.50;10278165;28;20120;-53
2023/05/19 20:40:53;;;;;;;16.00;10.60;;;;;;;15.86;75.64;98112.31;10279549;28;20081;-53
2023/05/19 20:45:52;;;;;;;13.18;9.52;;;;;;;15.58;75.43;98046.47;10279096;28;20076;-53
2023/05/19 20:50:53;;;;;;;14.40;9.80;;;;;;;15.85;75.56;98089.63;10278424;28;20054;-53
2023/05/19 20:55:52;;;;;;;14.00;9.27;;;;;;;15.81;74.76;98093.19;10286014;28;20162;-53
2023/05/19 21:00:56;;;;;;;14.35;9.68;;;;;;;15.80;75.37;98088.84;10285558;28;20130;-52
2023/05/19 21:05:55;;;;;;;16.05;10.00;;;;;;;15.76;75.28;98076.69;10285589;28;20132;-53
2023/05/19 21:10:54;;;;;;;14.68;10.63;;;;;;;15.66;76.01;98076.81;10285516;28;20120;-53
2023/05/19 21:15:55;;;;;;;14.63;10.48;;;;;;;15.60;76.55;98076.94;10286043;28;20519;-53
2023/05/19 21:20:54;;;;;;;15.20;11.27;;;;;;;15.50;77.38;98069.25;10284610;28;20066;-53
2023/05/19 21:25:53;;;;;;;13.60;9.82;;;;;;;15.26;78.02;98066.13;10284011;28;20045;-53
2023/05/19 21:30:52;;;;;;;12.27;9.00;;;;;;;15.22;77.84;98065.31;10284190;28;20049;-52
2023/05/19 21:35:50;;;;;;;;;;;;;;;15.23;77.58;98074.03;10284441;28;20575;-52
2023/05/19 21:40:50;;;;;;;16.83;10.53;;;;;;;15.23;77.91;98066.19;10285361;28;20439;-53
2023/05/19 21:45:49;;;;;;;21.83;11.10;;;;;;;15.01;78.36;98040.38;10284054;28;20077;-52
2023/05/19 21:50:55;;;;;;;17.35;11.55;;;;;;;15.07;78.69;98055.06;10283184;28;20559;-53
2023/05/19 21:55:54;;;;;;;16.73;11.43;;;;;;;15.15;78.71;98075.88;10284781;28;20548;-53
2023/05/19 22:00:53;;;;;;;19.67;11.18;;;;;;;15.11;78.96;98062.00;10283239;28;20038;-54
2023/05/19 22:05:53;;;;;;;;;;;;;;;15.13;79.49;98070.69;10283206;28;20034;-52
2023/05/19 22:10:52;;;;;;;16.33;10.18;;;;;;;15.10;80.06;98070.72;10282078;28;20016;-53
2023/05/19 22:15:51;;;;;;;17.73;11.02;;;;;;;15.07;79.37;98064.69;10282197;28;20037;-53
2023/05/19 22:20:50;;;;;;;;;;;;;;;15.08;78.89;98056.78;10279710;28;20124;-52
2023/05/19 22:25:49;;;;;;;16.50;10.07;;;;;;;15.09;78.93;98069.00;10278031;28;19953;-53
2023/05/19 22:30:47;;;;;;;;;;;;;;;15.05;79.19;98062.06;10279277;28;20040;-53
2023/05/19 22:35:46;;;;;;;16.65;11.27;;;;;;;14.77;79.82;98015.41;10281711;28;19969;-53
2023/05/19 22:40:45;;;;;;;;;;;;;;;15.01;80.16;98053.44;10282887;28;20109;-53
2023/05/19 22:45:44;;;;;;;20.60;11.23;;;;;;;14.91;80.87;98053.56;10282579;28;19914;-53
2023/05/19 22:50:43;;;;;;;;;;;;;;;14.72;82.05;98058.16;10283146;28;20120;-53
2023/05/19 22:55:42;;;;;;;15.63;10.47;;;;;;;14.38;82.53;98006.31;10282064;28;20696;-53